Main page
METAR-TAF:

METAR-TAF

Airports :

Manchester Airport

Manchester, England

latitude: 53-21N, longitude: 002-17W, elevation: 69 m

Current weather observation

The report was made 16 minutes ago, at 00:20 UTC
Wind 7 kt from the Northeast
Temperature 11°C
Humidity 71%
Pressure 1025 hPa
Visibility 10 km or more

METAR: EGCC 240020Z AUTO 04007KT 9999 NCD 11/06 Q1025 NOSIG

Time: 01:36 (00:36 UTC)

Forecast

The report was made 1 hour and 37 minutes ago, at 22:59 UTC
Forecast valid from 24 at 00 UTC to 25 at 06 UTC
Wind 8 kt from the Northeast
Visibility 10 km or more
Few clouds at a height of 4000 ft
Temporary
from 25 at 02 UTC to 25 at 06 UTC
Visibility: 6000 m
rain showers

TAF: EGCC 232259Z 2400/2506 05008KT 9999 FEW040 TEMPO 2502/2506 6000 SHRA

Weather observations and forecasts of more than 4000 airports (METAR and TAF reports).

The available stations are represented by yellow and red dots on the map.

Hover mouse over dot to see the name of the station.

Then click to see weather observations and forecasts.

To change the map : click on the green buttons with a black cross to zoom in, on the green button with a dash to zoom out, or on the green arrows for adjacent maps.


METAR-TAF: